Time;durP1;ratioP1;P1;durP2;ratioP2;P2;SDS_P1;SDS_P2;PMS_P1;PMS_P2;Temp;Humidity;BMP_temperature;BMP_pressure;BME280_temperature;BME280_humidity;BME280_pressure;Samples;Min_cycle;Max_cycle;Signal;HPM_P1;HPM_P2
2023/05/11 00:01:53;;;;;;;16.15;12.25;;;13.90;99.90;;;;;;5092382;28;20173;-48
2023/05/11 00:04:18;;;;;;;18.10;11.80;;;13.90;99.90;;;;;;5092043;28;20614;-48
2023/05/11 00:06:44;;;;;;;17.15;11.45;;;14.00;99.90;;;;;;5091901;28;20221;-48
2023/05/11 00:09:10;;;;;;;18.10;11.98;;;13.90;99.90;;;;;;5092232;28;20190;-48
2023/05/11 00:11:36;;;;;;;18.17;11.15;;;13.70;99.90;;;;;;5092379;28;20183;-48
2023/05/11 00:14:02;;;;;;;13.40;9.82;;;13.60;99.90;;;;;;5091990;28;20170;-48
2023/05/11 00:16:27;;;;;;;9.50;7.38;;;13.50;99.90;;;;;;5091902;28;20219;-47
2023/05/11 00:18:53;;;;;;;6.68;4.85;;;13.40;99.90;;;;;;5091900;28;20165;-47
2023/05/11 00:21:19;;;;;;;4.05;3.10;;;13.30;99.90;;;;;;5090569;28;20265;-49
2023/05/11 00:23:44;;;;;;;4.45;3.45;;;13.10;99.90;;;;;;5091963;28;20208;-49
2023/05/11 00:26:10;;;;;;;6.10;3.28;;;13.10;99.90;;;;;;5091840;28;20172;-48
2023/05/11 00:28:35;;;;;;;9.32;4.00;;;13.00;99.90;;;;;;5092117;28;20170;-49
2023/05/11 00:31:01;;;;;;;7.28;4.70;;;12.80;99.90;;;;;;5090512;28;20169;-49
2023/05/11 00:33:27;;;;;;;7.82;4.70;;;12.90;99.90;;;;;;5091127;28;20249;-49
2023/05/11 00:35:52;;;;;;;7.53;4.57;;;12.90;99.90;;;;;;5091712;28;20180;-49
2023/05/11 00:38:18;;;;;;;10.32;5.00;;;12.80;99.90;;;;;;5090400;28;20503;-49
2023/05/11 00:40:43;;;;;;;7.22;5.75;;;12.80;99.90;;;;;;5091639;28;20176;-48
2023/05/11 00:43:09;;;;;;;8.95;6.13;;;12.90;99.90;;;;;;5091500;28;20606;-48
2023/05/11 00:45:35;;;;;;;8.10;6.38;;;13.00;99.90;;;;;;5094312;28;20165;-48
2023/05/11 00:48:00;;;;;;;10.13;6.68;;;13.00;99.90;;;;;;5096040;28;20173;-48
2023/05/11 00:50:26;;;;;;;6.60;5.75;;;13.00;99.90;;;;;;5095964;28;20657;-48
2023/05/11 00:52:53;;;;;;;9.05;6.65;;;13.00;99.90;;;;;;5095642;28;20649;-49
2023/05/11 00:55:20;;;;;;;7.90;6.70;;;13.00;99.90;;;;;;5095875;28;20165;-49
2023/05/11 00:57:46;;;;;;;9.70;7.15;;;13.00;99.90;;;;;;5095872;28;20233;-48
2023/05/11 01:00:12;;;;;;;12.25;7.25;;;13.10;99.90;;;;;;5095473;28;20199;-48
2023/05/11 01:02:38;;;;;;;9.55;7.30;;;13.10;99.90;;;;;;5095407;28;20196;-47
2023/05/11 01:05:05;;;;;;;11.10;8.32;;;13.10;99.90;;;;;;5095856;28;20220;-49
2023/05/11 01:07:37;;;;;;;11.10;8.50;;;13.10;99.90;;;;;;5095715;28;20520;-49
2023/05/11 01:10:09;;;;;;;10.60;8.05;;;13.10;99.90;;;;;;5095846;28;20252;-49
2023/05/11 01:13:16;;;;;;;12.20;8.38;;;13.10;99.90;;;;;;5095599;28;20161;-47
2023/05/11 01:15:50;;;;;;;11.63;8.55;;;13.10;99.90;;;;;;5093202;28;20181;-48
2023/05/11 01:18:26;;;;;;;15.45;9.82;;;13.10;99.90;;;;;;5095328;28;20197;-48
2023/05/11 01:20:55;;;;;;;16.52;10.60;;;13.10;99.90;;;;;;5095098;28;20168;-48
2023/05/11 01:23:43;;;;;;;13.77;9.95;;;13.10;99.90;;;;;;5095047;28;20212;-48
2023/05/11 01:26:27;;;;;;;16.52;11.30;;;13.10;99.90;;;;;;5095303;28;20203;-48
2023/05/11 01:29:44;;;;;;;18.58;11.48;;;13.20;99.90;;;;;;5095002;28;20575;-48
2023/05/11 01:32:22;;;;;;;18.02;11.23;;;13.20;99.90;;;;;;5071951;28;20183;-48
2023/05/11 01:35:01;;;;;;;19.25;13.02;;;13.30;99.90;;;;;;5094890;28;20240;-48
2023/05/11 01:37:30;;;;;;;19.02;12.70;;;13.30;99.90;;;;;;5094823;28;20173;-49
2023/05/11 01:39:58;;;;;;;19.35;12.38;;;13.30;99.90;;;;;;5095033;28;20516;-48
2023/05/11 01:42:29;;;;;;;15.98;11.55;;;13.30;99.90;;;;;;5094807;28;20174;-47
2023/05/11 01:44:56;;;;;;;17.50;12.00;;;13.20;99.90;;;;;;5094876;28;20577;-48
2023/05/11 01:47:24;;;;;;;15.77;10.80;;;13.20;99.90;;;;;;5094693;28;20157;-48
2023/05/11 01:49:51;;;;;;;19.83;12.82;;;13.20;99.90;;;;;;5094649;28;20165;-49
2023/05/11 01:52:19;;;;;;;16.27;11.50;;;13.20;99.90;;;;;;5094626;28;20165;-48
2023/05/11 01:54:47;;;;;;;16.58;11.23;;;13.20;99.90;;;;;;5094554;28;20197;-48
2023/05/11 01:57:14;;;;;;;18.02;11.77;;;13.20;99.90;;;;;;5094265;28;20641;-48
2023/05/11 01:59:40;;;;;;;16.27;11.88;;;13.10;99.90;;;;;;5094477;28;20176;-48
2023/05/11 02:02:07;;;;;;;15.75;11.25;;;13.00;99.90;;;;;;5094934;28;20183;-49
2023/05/11 02:04:35;;;;;;;13.82;12.00;;;13.00;99.90;;;;;;5094898;28;20217;-48
2023/05/11 02:07:02;;;;;;;22.63;12.60;;;13.10;99.90;;;;;;5094283;28;20642;-48
2023/05/11 02:09:30;;;;;;;15.77;11.98;;;13.10;99.90;;;;;;5094524;28;20201;-48
2023/05/11 02:11:57;;;;;;;18.02;12.02;;;13.10;99.90;;;;;;5094229;28;20248;-48
2023/05/11 02:14:24;;;;;;;18.95;12.02;;;13.10;99.90;;;;;;5094194;28;20252;-48
2023/05/11 02:16:51;;;;;;;15.90;11.88;;;13.10;99.90;;;;;;5094341;28;20256;-48
2023/05/11 02:19:17;;;;;;;17.73;11.90;;;13.00;99.90;;;;;;5094101;28;20184;-48
2023/05/11 02:21:44;;;;;;;21.75;12.02;;;13.10;99.90;;;;;;5094016;28;20645;-48
2023/05/11 02:24:11;;;;;;;23.42;13.32;;;13.10;99.90;;;;;;5093951;28;20676;-48
2023/05/11 02:26:37;;;;;;;21.23;12.38;;;13.10;99.90;;;;;;5092623;28;20515;-47
2023/05/11 02:29:02;;;;;;;16.20;10.93;;;13.10;99.90;;;;;;5094324;28;20184;-48
2023/05/11 02:31:30;;;;;;;16.80;11.05;;;13.10;99.90;;;;;;5093991;28;20166;-47
2023/05/11 02:34:06;;;;;;;17.52;12.32;;;13.10;99.90;;;;;;5093768;28;20165;-47
2023/05/11 02:36:32;;;;;;;17.92;12.15;;;13.10;99.90;;;;;;5094173;28;20157;-47
2023/05/11 02:39:07;;;;;;;19.33;11.88;;;13.10;99.90;;;;;;5093739;28;20537;-48
2023/05/11 02:41:41;;;;;;;15.65;11.50;;;13.00;99.90;;;;;;5094243;28;20217;-48
2023/05/11 02:44:10;;;;;;;16.65;11.43;;;13.10;99.90;;;;;;5093544;28;20285;-48
2023/05/11 02:46:38;;;;;;;15.73;11.05;;;13.10;99.90;;;;;;5093982;28;20157;-47
2023/05/11 02:49:07;;;;;;;16.10;11.55;;;13.00;99.90;;;;;;5094182;28;20515;-49
2023/05/11 02:51:36;;;;;;;17.13;11.75;;;13.00;99.90;;;;;;5094102;28;20165;-49
2023/05/11 02:54:04;;;;;;;18.75;12.70;;;13.10;99.90;;;;;;5094108;28;20567;-48
2023/05/11 02:56:30;;;;;;;17.17;12.23;;;13.10;99.90;;;;;;5093393;28;20176;-49
2023/05/11 02:58:55;;;;;;;21.30;12.60;;;13.10;99.90;;;;;;5093316;28;20169;-49
2023/05/11 03:01:21;;;;;;;15.30;10.70;;;13.00;99.90;;;;;;5093524;28;20174;-49
2023/05/11 03:03:47;;;;;;;19.67;10.45;;;12.90;99.90;;;;;;5093160;28;20200;-49
2023/05/11 03:06:12;;;;;;;19.20;11.90;;;12.90;99.90;;;;;;5093018;28;20240;-48
2023/05/11 03:08:39;;;;;;;21.27;11.23;;;12.90;99.90;;;;;;5092606;28;20166;-48
2023/05/11 03:11:05;;;;;;;28.35;11.93;;;;;;;;;;5093467;28;20630;-49
2023/05/11 03:13:32;;;;;;;18.15;10.48;;;12.90;99.90;;;;;;5093235;28;20187;-48
2023/05/11 03:16:01;;;;;;;27.70;12.20;;;12.90;99.90;;;;;;5092942;28;20683;-48
2023/05/11 03:18:28;;;;;;;18.90;10.98;;;13.00;99.90;;;;;;5093188;28;20542;-48
2023/05/11 03:20:56;;;;;;;17.95;11.55;;;13.00;99.90;;;;;;5092883;28;20168;-48
2023/05/11 03:23:22;;;;;;;20.85;11.18;;;13.00;99.90;;;;;;5092726;28;20201;-48
2023/05/11 03:25:48;;;;;;;19.92;11.85;;;13.00;99.90;;;;;;5092890;28;20180;-48
2023/05/11 03:28:14;;;;;;;19.27;10.93;;;13.00;99.90;;;;;;5092665;28;20166;-48
2023/05/11 03:30:43;;;;;;;19.73;11.13;;;13.10;99.90;;;;;;5092968;28;20168;-48
2023/05/11 03:33:09;;;;;;;18.83;11.88;;;13.10;99.90;;;;;;5092600;28;20165;-49
2023/05/11 03:35:36;;;;;;;24.73;12.05;;;13.10;99.90;;;;;;5093142;28;20615;-49
2023/05/11 03:38:04;;;;;;;19.23;12.60;;;13.10;99.90;;;;;;5093014;28;20218;-49
2023/05/11 03:40:32;;;;;;;17.85;12.25;;;13.00;99.90;;;;;;5092723;28;20268;-48
2023/05/11 03:43:01;;;;;;;16.35;11.70;;;13.00;99.90;;;;;;5092396;28;20569;-48
2023/05/11 03:45:28;;;;;;;21.60;12.65;;;13.10;99.90;;;;;;5092430;28;20162;-48
2023/05/11 03:47:56;;;;;;;17.75;12.70;;;13.00;99.90;;;;;;5092317;28;20166;-48
2023/05/11 03:50:22;;;;;;;21.83;13.00;;;13.00;99.90;;;;;;5092549;28;20178;-48
2023/05/11 03:52:48;;;;;;;22.13;12.38;;;13.10;99.90;;;;;;5090782;28;20581;-48
2023/05/11 03:55:15;;;;;;;16.20;11.35;;;;;;;;;;5092531;28;20555;-48
2023/05/11 03:57:40;;;;;;;18.25;12.38;;;13.10;99.90;;;;;;5092215;28;20164;-48
2023/05/11 04:00:09;;;;;;;17.17;11.63;;;13.10;99.90;;;;;;5092137;28;20173;-47
2023/05/11 04:02:35;;;;;;;19.75;13.07;;;13.00;99.90;;;;;;5092810;28;20201;-48
2023/05/11 04:05:05;;;;;;;16.15;12.20;;;13.00;99.90;;;;;;5091892;28;20256;-48
2023/05/11 04:07:31;;;;;;;17.85;12.13;;;13.10;99.90;;;;;;5092335;28;20174;-48
2023/05/11 04:09:57;;;;;;;23.60;15.20;;;13.00;99.90;;;;;;5092228;28;20180;-49
2023/05/11 04:12:22;;;;;;;22.77;14.52;;;13.10;99.90;;;;;;5092042;28;20165;-49
2023/05/11 04:14:48;;;;;;;23.45;13.88;;;13.10;99.90;;;;;;5092192;28;20171;-49
2023/05/11 04:17:13;;;;;;;24.73;16.15;;;13.10;99.90;;;;;;5091926;28;20695;-48
2023/05/11 04:19:39;;;;;;;19.85;15.48;;;13.10;99.90;;;;;;5091813;28;20181;-48
2023/05/11 04:22:04;;;;;;;24.17;16.52;;;13.20;99.90;;;;;;5092441;28;20201;-48
2023/05/11 04:24:30;;;;;;;26.80;16.58;;;;;;;;;;5091657;28;20666;-49
2023/05/11 04:26:56;;;;;;;27.13;17.05;;;13.00;99.90;;;;;;5091799;28;20244;-48
2023/05/11 04:29:22;;;;;;;25.58;17.23;;;13.10;99.90;;;;;;5092000;28;20173;-48
2023/05/11 04:31:48;;;;;;;28.40;17.88;;;13.10;99.90;;;;;;5092015;28;20162;-48
2023/05/11 04:34:13;;;;;;;27.77;17.67;;;13.10;99.90;;;;;;5091694;28;20180;-48
2023/05/11 04:36:39;;;;;;;29.73;16.90;;;13.10;99.90;;;;;;5091680;28;20626;-48
2023/05/11 04:39:05;;;;;;;30.65;18.42;;;;;;;;;;5091176;28;20215;-48
2023/05/11 04:41:30;;;;;;;30.90;19.10;;;13.10;99.90;;;;;;5091840;28;20212;-50
2023/05/11 04:43:56;;;;;;;26.98;17.67;;;13.10;99.90;;;;;;5091412;28;20677;-48
2023/05/11 04:46:22;;;;;;;27.60;17.48;;;13.20;99.90;;;;;;5091426;28;20200;-49
2023/05/11 04:48:47;;;;;;;28.17;18.25;;;13.20;99.90;;;;;;5091583;28;20234;-48
2023/05/11 04:51:13;;;;;;;27.98;18.02;;;13.30;99.90;;;;;;5091415;28;20535;-48
2023/05/11 04:53:39;;;;;;;29.35;19.23;;;13.40;99.90;;;;;;5091497;28;20439;-48
2023/05/11 04:56:04;;;;;;;29.33;18.23;;;13.30;99.90;;;;;;5091909;28;20176;-48
2023/05/11 04:58:30;;;;;;;27.88;19.38;;;13.30;99.90;;;;;;5091457;28;20165;-48
2023/05/11 05:00:55;;;;;;;29.60;18.85;;;13.40;99.90;;;;;;5090098;28;20173;-48
2023/05/11 05:03:21;;;;;;;27.98;18.83;;;13.40;99.90;;;;;;5091573;28;20202;-47
2023/05/11 05:05:46;;;;;;;32.22;18.88;;;13.40;99.90;;;;;;5091248;28;20209;-48
2023/05/11 05:08:12;;;;;;;27.23;17.10;;;13.20;99.90;;;;;;5091622;28;20626;-48
2023/05/11 05:10:37;;;;;;;24.73;17.15;;;13.30;99.90;;;;;;5091559;28;20173;-47
2023/05/11 05:13:03;;;;;;;26.60;17.05;;;13.40;99.90;;;;;;5091594;28;20585;-48
2023/05/11 05:15:28;;;;;;;23.13;16.73;;;13.40;99.90;;;;;;5091175;28;20188;-48
2023/05/11 05:17:54;;;;;;;21.73;14.82;;;13.50;99.90;;;;;;5091291;28;20171;-48
2023/05/11 05:20:20;;;;;;;24.00;16.27;;;;;;;;;;5091475;28;20165;-48
2023/05/11 05:22:46;;;;;;;26.75;17.35;;;13.60;99.90;;;;;;5091091;28;20201;-48
2023/05/11 05:25:11;;;;;;;26.52;14.95;;;13.60;99.90;;;;;;5091066;28;20172;-49
2023/05/11 05:27:37;;;;;;;24.42;15.02;;;;;;;;;;5091120;28;20211;-49
2023/05/11 05:30:03;;;;;;;28.67;16.00;;;13.40;99.90;;;;;;5091617;28;20179;-48
2023/05/11 05:32:29;;;;;;;29.15;14.80;;;;;;;;;;5094611;28;20173;-48
2023/05/11 05:34:55;;;;;;;27.15;15.57;;;13.40;99.90;;;;;;5094975;28;20180;-49
2023/05/11 05:37:20;;;;;;;25.70;16.58;;;13.40;99.90;;;;;;5093410;28;20184;-48
2023/05/11 05:39:46;;;;;;;20.90;16.20;;;;;;;;;;5094659;28;20169;-48
2023/05/11 05:42:12;;;;;;;28.42;17.42;;;13.40;99.90;;;;;;5094876;28;20169;-48
2023/05/11 05:44:38;;;;;;;23.30;16.27;;;;;;;;;;5093503;28;20205;-47
2023/05/11 05:47:04;;;;;;;25.08;15.00;;;;;;;;;;5094375;28;20201;-47
2023/05/11 05:49:30;;;;;;;27.88;15.77;;;13.40;99.90;;;;;;5093991;28;20650;-46
2023/05/11 05:51:56;;;;;;;23.45;15.85;;;;;;;;;;5093932;28;20188;-47
2023/05/11 05:54:21;;;;;;;25.00;16.73;;;13.60;99.90;;;;;;5094086;28;20576;-49
2023/05/11 05:56:49;;;;;;;37.28;17.70;;;13.80;99.90;;;;;;5093511;28;20223;-49
2023/05/11 05:59:14;;;;;;;19.88;14.93;;;13.80;99.90;;;;;;5093750;28;20260;-49
2023/05/11 06:01:44;;;;;;;22.10;15.88;;;13.80;99.90;;;;;;5093525;28;20189;-49
2023/05/11 06:04:11;;;;;;;21.30;15.60;;;13.80;99.90;;;;;;5093419;28;20665;-50
2023/05/11 06:06:37;;;;;;;23.10;15.95;;;;;;;;;;5093436;28;20298;-50
2023/05/11 06:09:02;;;;;;;19.33;14.98;;;13.80;99.90;;;;;;5093950;28;20630;-50
2023/05/11 06:11:28;;;;;;;29.20;16.77;;;13.80;99.90;;;;;;5093475;28;20594;-50
2023/05/11 06:13:53;;;;;;;22.90;15.82;;;13.90;99.90;;;;;;5093420;28;20172;-50
2023/05/11 06:16:19;;;;;;;24.33;15.55;;;;;;;;;;5093464;28;20165;-48
2023/05/11 06:18:46;;;;;;;23.88;15.57;;;;;;;;;;5093637;28;20545;-50
2023/05/11 06:21:11;;;;;;;20.77;14.60;;;13.90;99.90;;;;;;5093156;28;20653;-51
2023/05/11 06:23:37;;;;;;;19.73;15.68;;;13.90;99.90;;;;;;5093255;28;20216;-47
2023/05/11 06:26:03;;;;;;;19.40;14.15;;;;;;;;;;5093981;28;20181;-47
2023/05/11 06:28:28;;;;;;;21.35;15.35;;;13.80;99.90;;;;;;5091893;28;20185;-49
2023/05/11 06:30:58;;;;;;;21.08;15.40;;;13.70;99.90;;;;;;5093049;28;20165;-50
2023/05/11 06:33:24;;;;;;;21.75;15.48;;;13.80;99.90;;;;;;5093326;28;20174;-49
2023/05/11 06:35:50;;;;;;;21.25;15.55;;;;;;;;;;5092850;28;20662;-49
2023/05/11 06:38:15;;;;;;;30.65;15.73;;;13.90;99.90;;;;;;5093276;28;20169;-50
2023/05/11 06:40:41;;;;;;;21.38;16.00;;;13.90;99.90;;;;;;5093124;28;20634;-51
2023/05/11 06:43:07;;;;;;;19.45;14.60;;;;;;;;;;5091830;28;20209;-49
2023/05/11 06:45:33;;;;;;;23.52;15.25;;;;;;;;;;5093408;28;20219;-48
2023/05/11 06:47:59;;;;;;;23.52;15.25;;;13.70;99.90;;;;;;5092886;28;20169;-47
2023/05/11 06:50:24;;;;;;;21.10;15.45;;;13.70;99.90;;;;;;5093054;28;20170;-50
2023/05/11 06:52:50;;;;;;;22.77;15.57;;;13.80;99.90;;;;;;5093049;28;20168;-48
2023/05/11 06:55:15;;;;;;;26.25;16.45;;;13.70;99.90;;;;;;5092699;28;20165;-47
2023/05/11 06:57:41;;;;;;;21.75;15.82;;;13.70;99.90;;;;;;5092425;28;20181;-49
2023/05/11 07:00:07;;;;;;;24.90;16.67;;;13.70;99.90;;;;;;5092476;28;20195;-50
2023/05/11 07:02:33;;;;;;;24.70;15.55;;;13.70;99.90;;;;;;5092760;28;20176;-50
2023/05/11 07:04:58;;;;;;;22.42;16.40;;;13.80;99.90;;;;;;5092170;28;20307;-50
2023/05/11 07:07:24;;;;;;;22.63;15.68;;;13.90;99.90;;;;;;5092449;28;20613;-49
2023/05/11 07:09:50;;;;;;;21.63;15.02;;;13.90;99.90;;;;;;5092276;28;20252;-50
2023/05/11 07:12:15;;;;;;;21.38;14.82;;;14.00;99.90;;;;;;5092396;28;20200;-50
2023/05/11 07:14:42;;;;;;;23.33;15.43;;;;;;;;;;5092304;28;20288;-50
2023/05/11 07:17:08;;;;;;;20.05;14.85;;;;;;;;;;5092533;28;20256;-50
2023/05/11 07:19:34;;;;;;;24.98;16.95;;;14.40;99.90;;;;;;5092495;28;20191;-50
2023/05/11 07:22:00;;;;;;;28.27;14.88;;;14.30;99.90;;;;;;5092211;28;20638;-50
2023/05/11 07:24:26;;;;;;;21.98;15.32;;;14.60;99.90;;;;;;5092070;28;20685;-50
2023/05/11 07:26:52;;;;;;;20.92;14.13;;;14.50;99.90;;;;;;5092075;28;20200;-49
2023/05/11 07:29:17;;;;;;;20.20;15.32;;;14.80;99.90;;;;;;5091945;28;20170;-50
2023/05/11 07:31:44;;;;;;;22.00;14.45;;;;;;;;;;5092126;28;20219;-50
2023/05/11 07:34:09;;;;;;;20.02;14.57;;;15.00;99.90;;;;;;5090566;28;20165;-50
2023/05/11 07:36:35;;;;;;;21.25;14.80;;;15.10;99.90;;;;;;5092141;28;20169;-50
2023/05/11 07:39:00;;;;;;;23.15;15.05;;;15.20;99.90;;;;;;5092316;28;20165;-49
2023/05/11 07:41:29;;;;;;;18.60;14.80;;;15.40;99.90;;;;;;5091769;28;20622;-49
2023/05/11 07:43:55;;;;;;;18.08;13.45;;;15.40;99.90;;;;;;5092039;28;20209;-50
2023/05/11 07:46:21;;;;;;;19.27;13.27;;;15.60;99.90;;;;;;5091762;28;20172;-49
2023/05/11 07:48:46;;;;;;;19.88;14.48;;;15.90;99.90;;;;;;5091677;28;20200;-49
2023/05/11 07:51:12;;;;;;;20.13;13.43;;;;;;;;;;5091607;28;20169;-48
2023/05/11 07:53:38;;;;;;;15.30;13.52;;;;;;;;;;5090051;28;20244;-49
2023/05/11 07:56:05;;;;;;;18.38;13.98;;;;;;;;;;5091738;28;20173;-48
2023/05/11 07:58:31;;;;;;;18.55;12.75;;;16.20;99.90;;;;;;5091969;28;20181;-46
2023/05/11 08:00:57;;;;;;;18.52;12.40;;;16.40;99.90;;;;;;5091691;28;20222;-46
2023/05/11 08:03:22;;;;;;;17.38;13.80;;;16.80;99.90;;;;;;5091258;28;20189;-46
2023/05/11 08:05:48;;;;;;;20.80;13.00;;;17.10;99.90;;;;;;5091546;28;20557;-46
2023/05/11 08:08:14;;;;;;;20.80;14.07;;;17.00;99.90;;;;;;5091483;28;20592;-47
2023/05/11 08:10:40;;;;;;;17.55;12.77;;;17.10;99.90;;;;;;5091198;28;20626;-46
2023/05/11 08:13:06;;;;;;;17.98;12.52;;;16.80;99.90;;;;;;5091321;28;20572;-46
2023/05/11 08:15:32;;;;;;;19.23;13.57;;;;;;;;;;5091730;28;20214;-46
2023/05/11 08:17:59;;;;;;;16.83;13.10;;;16.70;99.90;;;;;;5091181;28;20164;-46
2023/05/11 08:20:25;;;;;;;19.90;13.02;;;16.60;99.90;;;;;;5091124;28;20187;-46
2023/05/11 08:22:50;;;;;;;22.35;14.13;;;16.40;99.90;;;;;;5090992;28;20650;-46
2023/05/11 08:25:16;;;;;;;20.45;13.68;;;16.30;99.90;;;;;;5091187;28;20196;-46
2023/05/11 08:27:42;;;;;;;24.98;15.68;;;16.10;99.90;;;;;;5091288;28;20211;-46
2023/05/11 08:30:08;;;;;;;22.95;14.82;;;16.20;99.90;;;;;;5091214;28;20181;-46
2023/05/11 08:32:35;;;;;;;26.15;15.55;;;;;;;;;;5091631;28;20295;-46
2023/05/11 08:35:00;;;;;;;22.20;14.93;;;16.30;99.90;;;;;;5091333;28;20165;-46
2023/05/11 08:37:26;;;;;;;25.95;16.75;;;16.50;99.90;;;;;;5091175;28;20525;-46
2023/05/11 08:39:52;;;;;;;25.33;16.30;;;;;;;;;;5090864;28;20631;-46
2023/05/11 08:42:18;;;;;;;27.25;16.08;;;16.40;99.90;;;;;;5091035;28;20165;-46
2023/05/11 08:44:45;;;;;;;29.63;16.10;;;16.20;99.90;;;;;;5090748;28;20625;-46
2023/05/11 08:47:11;;;;;;;28.65;17.38;;;16.30;99.90;;;;;;5090903;28;20161;-46
2023/05/11 08:49:37;;;;;;;24.30;16.80;;;16.40;99.90;;;;;;5090872;28;20653;-46
2023/05/11 08:52:07;;;;;;;20.13;15.38;;;16.50;99.90;;;;;;5091208;28;20165;-47
2023/05/11 08:54:32;;;;;;;26.63;16.17;;;16.50;99.90;;;;;;5090524;28;20674;-46
2023/05/11 08:57:00;;;;;;;25.02;15.07;;;16.50;99.90;;;;;;5090547;28;20208;-46
2023/05/11 08:59:27;;;;;;;26.55;16.63;;;16.50;99.90;;;;;;5090603;28;20536;-46
2023/05/11 09:01:54;;;;;;;29.00;16.20;;;16.50;99.90;;;;;;5091014;28;20173;-46
2023/05/11 09:04:23;;;;;;;22.50;15.35;;;16.60;99.90;;;;;;5090705;28;20196;-46
2023/05/11 09:06:50;;;;;;;20.98;14.45;;;16.70;99.90;;;;;;5093022;28;20209;-46
2023/05/11 09:09:17;;;;;;;23.83;14.10;;;16.50;99.90;;;;;;5094749;28;20219;-46
2023/05/11 09:11:44;;;;;;;23.45;14.38;;;16.50;99.90;;;;;;5094953;28;20166;-46
2023/05/11 09:14:09;;;;;;;22.10;14.07;;;16.50;99.90;;;;;;5094638;28;20174;-46
2023/05/11 09:16:35;;;;;;;23.90;14.70;;;;;;;;;;5094651;28;20206;-46
2023/05/11 09:19:01;;;;;;;23.10;15.93;;;16.40;99.90;;;;;;5094938;28;20161;-46
2023/05/11 09:21:29;;;;;;;30.85;18.60;;;16.50;99.90;;;;;;5094472;28;20752;-46
2023/05/11 09:23:57;;;;;;;26.55;16.90;;;16.50;99.90;;;;;;5094426;28;20205;-46
2023/05/11 09:26:24;;;;;;;26.67;16.23;;;16.70;99.90;;;;;;5094719;28;20184;-46
2023/05/11 09:28:56;;;;;;;23.75;14.80;;;16.80;99.90;;;;;;5094583;28;20605;-46
2023/05/11 09:31:45;;;;;;;23.85;14.15;;;16.70;99.90;;;;;;5094366;28;20226;-46
2023/05/11 09:34:22;;;;;;;23.65;15.20;;;16.60;99.90;;;;;;5094194;28;20586;-46
2023/05/11 09:36:51;;;;;;;25.45;16.10;;;16.50;99.90;;;;;;5094368;28;20173;-46
2023/05/11 09:39:20;;;;;;;28.67;17.90;;;;;;;;;;5094490;28;20174;-47
2023/05/11 09:41:45;;;;;;;27.42;16.67;;;16.70;99.90;;;;;;5094122;28;20543;-47
2023/05/11 09:44:13;;;;;;;28.42;19.38;;;16.60;99.90;;;;;;5094133;28;20201;-47
2023/05/11 09:46:41;;;;;;;29.20;19.90;;;16.40;99.90;;;;;;5094118;28;20165;-46
2023/05/11 09:49:08;;;;;;;31.40;19.13;;;16.40;99.90;;;;;;5093991;28;20175;-46
2023/05/11 09:51:39;;;;;;;34.85;20.73;;;16.20;99.90;;;;;;5094275;28;20176;-46
2023/05/11 09:54:18;;;;;;;38.63;20.13;;;16.10;99.90;;;;;;5094064;28;20645;-47
2023/05/11 09:56:55;;;;;;;31.58;18.83;;;16.10;99.90;;;;;;5094132;28;20172;-46
2023/05/11 09:59:40;;;;;;;31.85;18.70;;;16.20;99.90;;;;;;5093862;28;20164;-46
2023/05/11 10:02:22;;;;;;;31.20;18.67;;;16.30;99.90;;;;;;5093995;28;20177;-47
2023/05/11 10:04:49;;;;;;;37.17;19.60;;;16.30;99.90;;;;;;5093483;28;20366;-46
2023/05/11 10:07:34;;;;;;;30.52;18.58;;;16.30;99.90;;;;;;5093618;28;20157;-46
2023/05/11 10:10:07;;;;;;;32.40;18.17;;;16.20;99.90;;;;;;5093415;28;20549;-46
2023/05/11 10:12:36;;;;;;;27.40;18.10;;;16.40;99.90;;;;;;5093867;28;20161;-46
2023/05/11 10:15:02;;;;;;;27.75;18.30;;;;;;;;;;5094039;28;20204;-46
2023/05/11 10:17:31;;;;;;;36.28;19.65;;;16.60;99.90;;;;;;5093350;28;20165;-46
2023/05/11 10:19:58;;;;;;;30.55;17.73;;;16.50;99.90;;;;;;5093468;28;20173;-47
2023/05/11 10:22:26;;;;;;;29.25;17.55;;;16.70;99.90;;;;;;5093390;28;20161;-47
2023/05/11 10:24:52;;;;;;;27.38;17.27;;;;;;;;;;5093177;28;20224;-47
2023/05/11 10:27:19;;;;;;;29.85;17.25;;;16.80;99.90;;;;;;5093167;28;20541;-47
2023/05/11 10:29:45;;;;;;;30.52;17.45;;;;;;;;;;5093095;28;20166;-47
2023/05/11 10:32:10;;;;;;;27.83;16.88;;;16.80;99.90;;;;;;5093187;28;20170;-47
2023/05/11 10:34:38;;;;;;;27.17;17.50;;;16.80;99.90;;;;;;5093435;28;20177;-48
2023/05/11 10:37:05;;;;;;;27.50;16.42;;;17.10;99.90;;;;;;5093011;28;20157;-47
2023/05/11 10:39:31;;;;;;;25.20;13.98;;;17.00;99.90;;;;;;5093498;28;20190;-47
2023/05/11 10:42:18;;;;;;;27.63;16.52;;;17.00;99.90;;;;;;5092780;28;20525;-48
2023/05/11 10:44:45;;;;;;;26.10;15.57;;;;;;;;;;5092919;28;20239;-47
2023/05/11 10:47:44;;;;;;;27.05;14.73;;;17.20;99.90;;;;;;5092912;28;20538;-47
2023/05/11 10:50:34;;;;;;;20.60;14.20;;;17.40;99.90;;;;;;5092773;28;20166;-47
2023/05/11 10:53:15;;;;;;;28.20;15.32;;;17.30;99.90;;;;;;5093237;28;20165;-47
2023/05/11 10:56:21;;;;;;;23.80;15.32;;;17.40;99.90;;;;;;5092741;28;20172;-47
2023/05/11 10:59:17;;;;;;;24.02;14.30;;;17.50;99.90;;;;;;5092892;28;20160;-48
2023/05/11 11:01:44;;;;;;;23.58;13.45;;;;;;;;;;5092580;28;20165;-47
2023/05/11 11:04:11;;;;;;;19.13;14.43;;;17.70;99.90;;;;;;5092462;28;20239;-48
2023/05/11 11:06:42;;;;;;;22.48;14.73;;;17.70;99.90;;;;;;5092282;28;20221;-47
2023/05/11 11:09:12;;;;;;;22.23;12.82;;;18.00;99.90;;;;;;5092509;28;20252;-48
2023/05/11 11:11:46;;;;;;;20.63;13.18;;;18.10;99.90;;;;;;5092673;28;20177;-47
2023/05/11 11:14:14;;;;;;;19.38;13.75;;;17.80;99.90;;;;;;5091121;28;20617;-48
2023/05/11 11:17:21;;;;;;;19.58;12.98;;;17.70;99.90;;;;;;5092295;28;20168;-45
2023/05/11 11:19:47;;;;;;;21.67;13.48;;;;;;;;;;5092140;28;20173;-46
2023/05/11 11:22:34;;;;;;;23.35;14.20;;;18.00;99.90;;;;;;5092230;28;20173;-47
2023/05/11 11:25:08;;;;;;;21.67;15.80;;;18.00;99.90;;;;;;5092438;28;20208;-49
2023/05/11 11:27:39;;;;;;;21.52;12.63;;;18.10;99.90;;;;;;5092358;28;20215;-46
2023/05/11 11:30:32;;;;;;;17.55;13.25;;;18.00;99.90;;;;;;5091349;28;20173;-46
2023/05/11 11:33:06;;;;;;;18.75;11.93;;;18.00;99.90;;;;;;5090018;28;20284;-46
2023/05/11 11:35:41;;;;;;;23.25;12.50;;;18.20;99.90;;;;;;5092304;28;20665;-47
2023/05/11 11:38:08;;;;;;;20.38;12.77;;;17.90;99.90;;;;;;5091762;28;20160;-47
2023/05/11 11:40:53;;;;;;;18.88;13.63;;;18.00;99.90;;;;;;5092004;28;20162;-47
2023/05/11 11:43:20;;;;;;;20.33;12.13;;;17.70;99.90;;;;;;5091757;28;20170;-47
2023/05/11 11:45:58;;;;;;;15.45;10.73;;;17.30;99.90;;;;;;5092057;28;20219;-47
2023/05/11 11:48:34;;;;;;;16.95;11.15;;;17.20;99.90;;;;;;5091926;28;20169;-47
2023/05/11 11:51:11;;;;;;;16.85;10.38;;;17.10;99.90;;;;;;5092036;28;20173;-47
2023/05/11 11:53:38;;;;;;;19.80;10.98;;;17.10;99.90;;;;;;5091831;28;20248;-47
2023/05/11 11:56:04;;;;;;;18.77;11.57;;;17.20;99.90;;;;;;5091691;28;20173;-47
2023/05/11 11:58:39;;;;;;;16.27;9.95;;;17.20;99.90;;;;;;5091814;28;20207;-47
2023/05/11 12:01:15;;;;;;;20.00;11.13;;;17.40;99.90;;;;;;5091642;28;20179;-47
2023/05/11 12:03:45;;;;;;;16.45;10.07;;;17.10;99.90;;;;;;5091351;28;20200;-47
2023/05/11 12:06:12;;;;;;;19.42;10.82;;;17.20;99.90;;;;;;5091345;28;20225;-47
2023/05/11 12:08:39;;;;;;;14.93;9.75;;;17.10;99.90;;;;;;5091393;28;20161;-47
2023/05/11 12:11:06;;;;;;;19.38;11.75;;;17.10;99.90;;;;;;5091505;28;20205;-47
2023/05/11 12:13:34;;;;;;;18.23;12.00;;;17.10;99.90;;;;;;5092060;28;20169;-47
2023/05/11 12:16:13;;;;;;;22.88;11.40;;;17.40;99.90;;;;;;5091821;28;20165;-47
2023/05/11 12:18:39;;;;;;;20.35;11.85;;;17.50;99.90;;;;;;5091345;28;20598;-47
2023/05/11 12:21:05;;;;;;;20.20;12.15;;;;;;;;;;5091189;28;20634;-47
2023/05/11 12:23:31;;;;;;;23.67;12.93;;;17.50;99.90;;;;;;5091538;28;20201;-47
2023/05/11 12:26:02;;;;;;;20.70;12.13;;;17.60;99.90;;;;;;5090949;28;20580;-47
2023/05/11 12:28:28;;;;;;;16.88;10.52;;;17.80;99.90;;;;;;5091741;28;20516;-47
2023/05/11 12:30:54;;;;;;;18.67;12.15;;;17.70;99.90;;;;;;5091090;28;20176;-47
2023/05/11 12:33:20;;;;;;;19.35;11.40;;;17.70;99.90;;;;;;5091181;28;20154;-47
2023/05/11 12:35:54;;;;;;;15.85;11.55;;;17.80;99.90;;;;;;5091325;28;20179;-47
2023/05/11 12:38:20;;;;;;;23.13;12.35;;;18.00;99.90;;;;;;5090935;28;20160;-47
2023/05/11 12:40:52;;;;;;;15.50;11.15;;;17.90;99.90;;;;;;5090138;28;20257;-48
2023/05/11 12:43:20;;;;;;;18.20;11.80;;;18.20;99.90;;;;;;5091003;28;20165;-47
2023/05/11 12:45:46;;;;;;;19.83;12.40;;;18.20;99.90;;;;;;5090915;28;20353;-47
2023/05/11 12:48:12;;;;;;;19.48;12.15;;;18.30;99.90;;;;;;5090872;28;20584;-47